Time;durP1;ratioP1;P1;durP2;ratioP2;P2;SDS_P1;SDS_P2;PMS_P1;PMS_P2;Temp;Humidity;BMP_temperature;BMP_pressure;BME280_temperature;BME280_humidity;BME280_pressure;Samples;Min_cycle;Max_cycle;Signal;HPM_P1;HPM_P2
2022/07/04 00:01:53;;;;;;;11.32;2.92;;;;;;;17.05;100.00;98559.53;5079602;28;20029;-93
2022/07/04 00:04:19;;;;;;;7.93;2.17;;;;;;;16.84;100.00;98570.84;5082564;28;20016;-93
2022/07/04 00:06:44;;;;;;;6.30;1.70;;;;;;;17.37;100.00;98567.94;5055585;28;20392;-92
2022/07/04 00:09:10;;;;;;;6.15;2.00;;;;;;;17.30;100.00;98574.38;5065380;28;20171;-93
2022/07/04 00:11:35;;;;;;;6.95;1.90;;;;;;;17.04;100.00;98570.13;5053674;28;20032;-93
2022/07/04 00:14:01;;;;;;;9.88;2.00;;;;;;;16.76;100.00;98572.91;5050637;28;20473;-92
2022/07/04 00:16:28;;;;;;;7.72;1.85;;;;;;;16.93;100.00;98567.91;5062307;28;20048;-93
2022/07/04 00:18:53;;;;;;;7.65;1.95;;;;;;;17.12;100.00;98560.16;5060610;28;20250;-93
2022/07/04 00:21:19;;;;;;;6.10;1.90;;;;;;;16.92;100.00;98560.91;5047713;28;20298;-93
2022/07/04 00:23:44;;;;;;;8.48;1.90;;;;;;;17.33;100.00;98554.97;5047592;28;20025;-92
2022/07/04 00:26:10;;;;;;;7.20;1.80;;;;;;;17.17;100.00;98552.06;5049561;28;20403;-92
2022/07/04 00:28:35;;;;;;;8.05;1.90;;;;;;;17.26;100.00;98548.19;5051984;28;20021;-93
2022/07/04 00:31:01;;;;;;;6.85;1.90;;;;;;;16.67;100.00;98540.75;5048546;28;20477;-92
2022/07/04 00:33:29;;;;;;;6.70;1.67;;;;;;;16.99;100.00;98536.06;5051185;28;20110;-92
2022/07/04 00:35:55;;;;;;;5.88;1.75;;;;;;;17.00;100.00;98529.00;5049347;28;20095;-92
2022/07/04 00:38:23;;;;;;;8.65;1.73;;;;;;;17.05;100.00;98524.44;5065116;28;20037;-92
2022/07/04 00:40:48;;;;;;;10.35;1.75;;;;;;;16.91;100.00;98527.59;5050737;28;20020;-91
2022/07/04 00:43:24;;;;;;;4.20;1.15;;;;;;;17.02;100.00;98516.63;5067109;28;20017;-90
2022/07/04 00:45:51;;;;;;;7.90;1.70;;;;;;;17.39;100.00;98512.53;5048673;28;20385;-92
2022/07/04 00:48:18;;;;;;;4.95;1.23;;;;;;;16.78;100.00;98516.63;5045886;28;20687;-91
2022/07/04 00:50:44;;;;;;;7.95;1.73;;;;;;;16.79;100.00;98509.59;5051723;28;20071;-92
2022/07/04 00:53:10;;;;;;;7.18;1.60;;;;;;;16.91;100.00;98496.00;5065316;28;20068;-91
2022/07/04 00:55:37;;;;;;;5.38;1.30;;;;;;;16.83;100.00;98492.75;5047342;28;20100;-92
2022/07/04 00:58:04;;;;;;;7.70;1.70;;;;;;;16.91;100.00;98487.22;5063362;28;20108;-92
2022/07/04 01:00:30;;;;;;;6.18;1.30;;;;;;;16.57;100.00;98485.84;5064562;28;20043;-92
2022/07/04 01:02:57;;;;;;;5.60;1.45;;;;;;;16.82;100.00;98483.13;5050160;28;20029;-93
2022/07/04 01:05:23;;;;;;;6.70;1.65;;;;;;;16.95;100.00;98481.78;5060125;28;20032;-92
2022/07/04 01:07:49;;;;;;;6.50;1.55;;;;;;;17.45;100.00;98482.41;5054235;28;20477;-93
2022/07/04 01:10:15;;;;;;;7.53;1.25;;;;;;;16.87;100.00;98479.41;5048808;28;20025;-92
2022/07/04 01:12:41;;;;;;;5.28;1.20;;;;;;;16.23;100.00;98469.56;5060755;28;20048;-91
2022/07/04 01:15:08;;;;;;;7.80;1.77;;;;;;;16.92;100.00;98458.16;5058911;28;20037;-91
2022/07/04 01:17:35;;;;;;;6.60;1.42;;;;;;;16.55;100.00;98464.84;5045869;28;20024;-92
2022/07/04 01:20:01;;;;;;;6.35;1.33;;;;;;;16.48;100.00;98461.59;5065403;28;20127;-93
2022/07/04 01:22:26;;;;;;;6.13;1.50;;;;;;;16.63;100.00;98464.56;5067477;28;20140;-92
2022/07/04 01:24:52;;;;;;;7.20;1.40;;;;;;;16.73;100.00;98474.66;5046807;28;20031;-92
2022/07/04 01:27:18;;;;;;;8.55;1.48;;;;;;;16.80;100.00;98474.41;5051827;28;20036;-92
2022/07/04 01:29:44;;;;;;;4.47;1.17;;;;;;;16.74;100.00;98472.88;5049287;28;20040;-93
2022/07/04 01:32:10;;;;;;;6.28;1.20;;;;;;;16.76;100.00;98476.34;5047234;28;20040;-94
2022/07/04 01:34:36;;;;;;;5.03;1.23;;;;;;;16.94;100.00;98487.09;5052262;28;20033;-93
2022/07/04 01:37:02;;;;;;;8.55;1.33;;;;;;;16.67;100.00;98488.09;5049054;28;20090;-93
2022/07/04 01:39:29;;;;;;;5.68;1.30;;;;;;;16.84;100.00;98478.66;5065832;28;20358;-93
2022/07/04 01:41:56;;;;;;;6.55;1.60;;;;;;;16.64;100.00;98484.69;5050904;28;20043;-92
2022/07/04 01:44:21;;;;;;;6.38;1.20;;;;;;;16.83;100.00;98488.34;5048039;28;20395;-92
2022/07/04 01:46:47;;;;;;;8.73;1.30;;;;;;;16.89;100.00;98492.53;5066396;28;20024;-92
2022/07/04 01:49:13;;;;;;;5.57;1.30;;;;;;;16.64;100.00;98495.22;5050761;28;20095;-93
2022/07/04 01:51:46;;;;;;;5.32;1.67;;;;;;;17.07;100.00;98504.13;5050070;28;20391;-93
2022/07/04 01:54:12;;;;;;;5.57;1.15;;;;;;;17.06;100.00;98497.13;5050566;28;20052;-94
2022/07/04 01:56:39;;;;;;;3.90;1.08;;;;;;;16.91;100.00;98489.84;5050044;28;20029;-93
2022/07/04 01:59:04;;;;;;;4.72;1.17;;;;;;;16.60;100.00;98478.69;5067702;28;20028;-93
2022/07/04 02:01:30;;;;;;;4.80;1.23;;;;;;;16.83;100.00;98480.44;5064762;28;20037;-92
2022/07/04 02:04:01;;;;;;;3.72;0.98;;;;;;;17.11;100.00;98487.28;5043824;28;20047;-94
2022/07/04 02:06:27;;;;;;;5.55;1.40;;;;;;;17.14;100.00;98478.41;5067233;28;20064;-92
2022/07/04 02:09:38;;;;;;;6.65;1.30;;;;;;;16.78;100.00;98479.75;5063463;28;20036;-93
2022/07/04 02:14:24;;;;;;;4.82;1.23;;;;;;;18.43;100.00;98488.72;5050936;28;20036;-93
2022/07/04 02:16:50;;;;;;;4.22;1.20;;;;;;;17.12;100.00;98474.94;5048578;28;20025;-92
2022/07/04 02:19:16;;;;;;;4.85;1.20;;;;;;;17.54;100.00;98474.97;5048099;28;20098;-92
2022/07/04 02:21:41;;;;;;;6.03;1.30;;;;;;;17.65;100.00;98460.50;5044355;28;20031;-92
2022/07/04 02:24:07;;;;;;;7.03;1.38;;;;;;;17.37;100.00;98461.66;5057449;28;20036;-94
2022/07/04 02:26:37;;;;;;;7.72;1.70;;;;;;;17.18;100.00;98454.50;5050057;28;20105;-93
2022/07/04 02:29:03;;;;;;;5.00;1.20;;;;;;;17.22;100.00;98444.69;5049615;28;20048;-93
2022/07/04 02:31:28;;;;;;;6.10;1.30;;;;;;;16.91;100.00;98448.56;5043744;28;20033;-93
2022/07/04 02:33:54;;;;;;;5.78;1.20;;;;;;;16.75;100.00;98444.78;5042692;28;20026;-92
2022/07/04 02:36:19;;;;;;;4.97;1.20;;;;;;;16.47;100.00;98451.13;5065717;28;20492;-94
2022/07/04 02:38:46;;;;;;;4.50;1.20;;;;;;;16.85;100.00;98454.03;5051422;28;20114;-93
2022/07/04 02:41:11;;;;;;;6.30;1.63;;;;;;;16.76;100.00;98451.75;5052604;28;20033;-92
2022/07/04 02:43:37;;;;;;;5.07;1.27;;;;;;;16.91;100.00;98450.34;5051004;28;20037;-93
2022/07/04 02:46:02;;;;;;;8.77;1.45;;;;;;;16.83;100.00;98445.34;5056548;28;20032;-95
2022/07/04 02:48:28;;;;;;;6.63;1.85;;;;;;;17.25;100.00;98455.09;5050043;28;20496;-93
2022/07/04 02:50:57;;;;;;;7.53;1.75;;;;;;;16.95;100.00;98451.94;5046398;28;20575;-94
2022/07/04 02:53:23;;;;;;;4.47;1.25;;;;;;;17.02;100.00;98453.41;5062718;28;20025;-93
2022/07/04 02:55:48;;;;;;;5.43;1.10;;;;;;;17.42;100.00;98454.41;5043533;28;20051;-93
2022/07/04 02:58:14;;;;;;;4.72;1.35;;;;;;;17.26;100.00;98450.69;5049306;28;20078;-92
2022/07/04 03:00:40;;;;;;;8.43;1.30;;;;;;;16.69;100.00;98456.44;5040885;28;20037;-93
2022/07/04 03:03:05;;;;;;;7.30;1.73;;;;;;;16.88;100.00;98448.66;5046773;28;20035;-93
2022/07/04 03:05:32;;;;;;;6.15;1.23;;;;;;;16.66;100.00;98446.00;5044054;28;20025;-93
2022/07/04 03:07:58;;;;;;;6.07;1.25;;;;;;;16.59;100.00;98441.88;5048038;28;20724;-92
2022/07/04 03:10:24;;;;;;;5.40;1.38;;;;;;;16.63;100.00;98447.00;5053958;28;20028;-92
2022/07/04 03:12:49;;;;;;;5.45;1.33;;;;;;;16.53;100.00;98435.97;5051075;28;20499;-93
2022/07/04 03:15:16;;;;;;;4.80;1.25;;;;;;;17.01;100.00;98423.56;5061531;28;20112;-92
2022/07/04 03:17:42;;;;;;;7.93;1.60;;;;;;;16.36;100.00;98425.22;5058558;28;20049;-93
2022/07/04 03:20:09;;;;;;;6.40;1.50;;;;;;;16.43;100.00;98418.78;5053012;28;20028;-92
2022/07/04 03:22:34;;;;;;;8.27;1.40;;;;;;;16.83;100.00;98422.50;5046295;28;20021;-92
2022/07/04 03:25:00;;;;;;;10.50;1.42;;;;;;;16.27;100.00;98423.78;5047191;28;20476;-93
2022/07/04 03:27:26;;;;;;;6.30;1.40;;;;;;;16.80;100.00;98427.91;5048004;28;20370;-94
2022/07/04 03:29:51;;;;;;;5.93;1.50;;;;;;;16.25;100.00;98430.88;5047897;28;20178;-94
2022/07/04 03:32:18;;;;;;;6.35;1.30;;;;;;;16.20;100.00;98423.16;5051352;28;20040;-91
2022/07/04 03:34:43;;;;;;;5.45;1.50;;;;;;;16.42;100.00;98430.22;5042393;28;20021;-91
2022/07/04 03:37:09;;;;;;;6.68;1.90;;;;;;;16.87;100.00;98417.97;5057066;28;20029;-90
2022/07/04 03:39:34;;;;;;;7.47;2.10;;;;;;;16.62;100.00;98415.44;5045524;28;20044;-91
2022/07/04 03:42:00;;;;;;;6.05;2.00;;;;;;;16.28;100.00;98401.81;5048927;28;20032;-93
2022/07/04 03:44:29;;;;;;;7.57;2.20;;;;;;;16.63;100.00;98411.88;5050694;28;20032;-94
2022/07/04 03:46:54;;;;;;;7.80;2.33;;;;;;;16.80;100.00;98429.66;5069492;28;20090;-91
2022/07/04 03:49:20;;;;;;;6.55;1.90;;;;;;;16.43;100.00;98423.22;5065483;28;20608;-93
2022/07/04 03:51:46;;;;;;;7.38;2.45;;;;;;;16.71;100.00;98426.50;5052803;28;20059;-93
2022/07/04 03:54:11;;;;;;;7.03;2.25;;;;;;;16.48;100.00;98431.78;5052130;28;20045;-93
2022/07/04 03:56:37;;;;;;;11.75;2.78;;;;;;;16.65;100.00;98423.25;5048003;28;20051;-92
2022/07/04 03:59:02;;;;;;;8.18;2.28;;;;;;;16.71;100.00;98422.97;5045724;28;20021;-93
2022/07/04 04:01:29;;;;;;;7.75;2.58;;;;;;;16.72;100.00;98435.25;5063828;28;20086;-88
2022/07/04 04:06:40;;;;;;;13.35;2.53;;;;;;;16.55;100.00;98439.38;5043407;28;20083;-89
2022/07/04 04:09:05;;;;;;;10.85;3.10;;;;;;;16.06;100.00;98450.88;5044156;28;20029;-89
2022/07/04 04:11:31;;;;;;;9.35;3.05;;;;;;;16.89;100.00;98424.91;5044693;28;20035;-89
2022/07/04 04:13:56;;;;;;;9.65;3.70;;;;;;;16.56;100.00;98434.97;5052949;28;20032;-88
2022/07/04 04:16:22;;;;;;;10.43;4.22;;;;;;;16.91;100.00;98435.41;5043428;28;20521;-89
2022/07/04 04:18:47;;;;;;;10.13;3.80;;;;;;;16.56;100.00;98440.22;5047716;28;20033;-89
2022/07/04 04:21:13;;;;;;;7.90;4.10;;;;;;;16.79;100.00;98431.44;5041317;28;20496;-88
2022/07/04 04:23:38;;;;;;;9.18;3.22;;;;;;;16.66;100.00;98433.72;5045446;28;20069;-89
2022/07/04 04:26:04;;;;;;;8.45;3.58;;;;;;;16.43;100.00;98439.00;5047495;28;20485;-89
2022/07/04 04:28:30;;;;;;;7.72;2.95;;;;;;;16.93;100.00;98438.81;5043909;28;20418;-88
2022/07/04 04:30:55;;;;;;;7.10;3.15;;;;;;;16.45;100.00;98437.16;5063243;28;20583;-88
2022/07/04 04:33:20;;;;;;;9.20;2.80;;;;;;;16.61;100.00;98440.91;5046023;28;20044;-89
2022/07/04 04:35:46;;;;;;;11.23;2.70;;;;;;;16.93;100.00;98438.81;5047339;28;20126;-89
2022/07/04 04:38:11;;;;;;;7.05;2.63;;;;;;;16.95;100.00;98428.22;5046956;28;22009;-89
2022/07/04 04:40:37;;;;;;;9.07;3.03;;;;;;;16.66;100.00;98435.47;5047965;28;20033;-89
2022/07/04 04:43:02;;;;;;;6.85;2.60;;;;;;;16.87;100.00;98444.31;5046154;28;20024;-89
2022/07/04 04:45:28;;;;;;;6.85;2.75;;;;;;;16.83;100.00;98424.28;5045591;28;20082;-90
2022/07/04 04:47:53;;;;;;;10.85;2.60;;;;;;;16.94;100.00;98421.22;5044513;28;20033;-89
2022/07/04 04:50:20;;;;;;;11.35;2.30;;;;;;;16.47;100.00;98409.84;5046153;28;20124;-89
2022/07/04 04:52:46;;;;;;;8.05;2.15;;;;;;;16.98;100.00;98394.72;5059483;28;20045;-93
2022/07/04 04:55:12;;;;;;;10.95;2.50;;;;;;;16.54;100.00;98397.31;5065222;28;20044;-91
2022/07/04 04:57:37;;;;;;;9.20;2.65;;;;;;;16.33;100.00;98402.50;5059391;28;20369;-92
2022/07/04 05:00:07;;;;;;;7.07;2.70;;;;;;;16.78;100.00;98423.59;5045649;28;20033;-90
2022/07/04 05:02:33;;;;;;;10.02;2.83;;;;;;;16.98;100.00;98431.59;5047099;28;20036;-90
2022/07/04 05:05:00;;;;;;;10.95;2.67;;;;;;;16.90;100.00;98428.41;5067868;28;20021;-91
2022/07/04 05:07:25;;;;;;;7.72;2.33;;;;;;;16.89;100.00;98443.34;5045793;28;20029;-91
2022/07/04 05:09:56;;;;;;;7.65;2.20;;;;;;;16.77;100.00;98442.94;5051403;28;20594;-91
2022/07/04 05:12:22;;;;;;;7.80;2.03;;;;;;;17.04;100.00;98444.50;5047366;28;20108;-91
2022/07/04 05:14:47;;;;;;;7.28;2.15;;;;;;;17.42;100.00;98456.19;5049822;28;20511;-91
2022/07/04 05:17:13;;;;;;;8.20;2.40;;;;;;;17.11;100.00;98454.81;5053165;28;20025;-91
2022/07/04 05:19:39;;;;;;;7.60;2.35;;;;;;;16.98;100.00;98470.25;5051203;28;20231;-92
2022/07/04 05:22:06;;;;;;;6.85;2.25;;;;;;;17.47;100.00;98459.50;5051477;28;20410;-91
2022/07/04 05:24:33;;;;;;;8.25;2.38;;;;;;;17.30;100.00;98457.53;5046661;28;20025;-91
2022/07/04 05:26:59;;;;;;;7.18;2.03;;;;;;;17.33;100.00;98445.09;5048604;28;20025;-91
2022/07/04 05:29:24;;;;;;;7.45;2.40;;;;;;;17.37;100.00;98446.69;5052969;28;20029;-91
2022/07/04 05:31:50;;;;;;;8.75;2.38;;;;;;;17.34;100.00;98448.59;5047903;28;20504;-90
2022/07/04 05:34:18;;;;;;;8.73;2.25;;;;;;;16.87;100.00;98436.41;5048436;28;20480;-90
2022/07/04 05:36:44;;;;;;;6.22;2.40;;;;;;;17.02;100.00;98443.72;5049763;28;20115;-90
2022/07/04 05:39:09;;;;;;;7.97;2.05;;;;;;;17.52;100.00;98437.28;5059988;28;20191;-91
2022/07/04 05:41:35;;;;;;;7.35;2.10;;;;;;;17.57;100.00;98434.44;5062724;28;20136;-92
2022/07/04 05:45:08;;;;;;;8.20;2.40;;;;;;;17.59;100.00;98443.13;5061518;28;20065;-91
2022/07/04 05:47:34;;;;;;;5.95;1.85;;;;;;;17.31;100.00;98439.03;5048766;28;20041;-90
2022/07/04 05:50:01;;;;;;;8.50;1.67;;;;;;;17.19;100.00;98429.03;5046681;28;20114;-91
2022/07/04 05:52:27;;;;;;;6.95;1.90;;;;;;;17.63;100.00;98444.72;5044904;28;20132;-92
2022/07/04 05:54:52;;;;;;;7.85;1.75;;;;;;;17.78;100.00;98437.09;5047521;28;20564;-91
2022/07/04 05:57:18;;;;;;;7.60;1.92;;;;;;;18.00;100.00;98445.78;5061517;28;20383;-92
2022/07/04 05:59:44;;;;;;;7.03;1.80;;;;;;;17.59;100.00;98458.94;5047404;28;20033;-92
2022/07/04 06:02:13;;;;;;;5.72;1.88;;;;;;;17.91;100.00;98449.69;4960935;28;20042;-92
2022/07/04 06:04:38;;;;;;;8.15;2.65;;;;;;;18.18;100.00;98451.19;5004819;28;20124;-90
2022/07/04 06:07:04;;;;;;;6.60;1.85;;;;;;;18.01;100.00;98452.78;5005919;28;20040;-91
2022/07/04 06:09:29;;;;;;;9.98;2.30;;;;;;;17.79;100.00;98449.34;5009859;28;20116;-91
2022/07/04 06:11:56;;;;;;;9.50;2.30;;;;;;;17.58;100.00;98452.00;5007206;28;20386;-91
2022/07/04 06:14:22;;;;;;;8.50;2.70;;;;;;;17.76;100.00;98452.97;5004827;28;20034;-91
2022/07/04 06:16:47;;;;;;;6.82;2.80;;;;;;;17.19;100.00;98450.94;5002674;28;20033;-92
2022/07/04 06:19:13;;;;;;;7.22;3.03;;;;;;;17.77;100.00;98457.31;5004285;28;20034;-91
2022/07/04 06:21:38;;;;;;;7.22;2.83;;;;;;;17.07;100.00;98461.97;5004159;28;20049;-91
2022/07/04 06:24:06;;;;;;;8.93;3.00;;;;;;;17.49;100.00;98458.47;5007946;28;20029;-91
2022/07/04 06:26:31;;;;;;;9.20;3.20;;;;;;;17.30;100.00;98457.53;5003289;28;20037;-93
2022/07/04 06:28:57;;;;;;;7.00;3.03;;;;;;;17.83;100.00;98457.06;5016946;28;20038;-92
2022/07/04 06:31:26;;;;;;;6.82;2.88;;;;;;;17.65;100.00;98457.84;5004274;28;20105;-89
2022/07/04 06:36:36;;;;;;;6.38;2.70;;;;;;;18.48;100.00;98453.34;5003361;28;20114;-92
2022/07/04 06:39:21;;;;;;;6.88;2.38;;;;;;;17.14;100.00;98436.25;5015832;28;20129;-96
2022/07/04 06:41:56;;;;;;;5.57;1.95;;;;;;;17.53;100.00;98441.63;5009112;28;20060;-95
2022/07/04 06:44:22;;;;;;;6.05;1.88;;;;;;;17.46;100.00;98453.34;5025427;28;20056;-93
2022/07/04 06:46:48;;;;;;;5.80;1.80;;;;;;;17.16;100.00;98444.94;5011756;28;20057;-93
2022/07/04 06:49:17;;;;;;;5.53;1.80;;;;;;;17.39;100.00;98444.84;5005006;28;20057;-93
2022/07/04 06:51:44;;;;;;;6.03;1.50;;;;;;;17.41;100.00;98442.13;5010595;28;20499;-92
2022/07/04 06:54:09;;;;;;;4.20;1.30;;;;;;;17.54;100.00;98432.78;5005184;28;20061;-93
2022/07/04 06:56:35;;;;;;;4.57;1.05;;;;;;;17.97;100.00;98442.41;5005269;28;20084;-96
2022/07/04 06:59:04;;;;;;;3.70;1.00;;;;;;;17.81;100.00;98448.34;5007797;28;20041;-94
2022/07/04 07:01:30;;;;;;;5.72;1.13;;;;;;;18.04;100.00;98444.72;5024724;28;20030;-94
2022/07/04 07:03:56;;;;;;;4.22;0.95;;;;;;;17.94;100.00;98446.06;5020568;28;20615;-92
2022/07/04 07:06:51;;;;;;;2.78;0.80;;;;;;;17.70;100.00;98442.69;5006999;28;20117;-92
2022/07/04 07:09:17;;;;;;;2.53;0.63;;;;;;;17.37;100.00;98438.78;5017025;28;20061;-94
2022/07/04 07:11:46;;;;;;;6.50;0.98;;;;;;;18.12;100.00;98433.84;5010400;28;20061;-95
2022/07/04 07:14:11;;;;;;;3.97;0.70;;;;;;;17.62;100.00;98448.28;5019647;28;20100;-94
2022/07/04 07:16:37;;;;;;;3.72;0.70;;;;;;;16.98;100.00;98454.44;5017299;28;20792;-93
2022/07/04 07:19:02;;;;;;;3.83;0.82;;;;;;;17.79;100.00;98437.00;5013968;28;20038;-93
2022/07/04 07:21:28;;;;;;;3.63;0.77;;;;;;;17.93;100.00;98438.22;5018913;28;20065;-92
2022/07/04 07:23:53;;;;;;;9.43;1.35;;;;;;;17.61;100.00;98443.94;5022406;28;20021;-93
2022/07/04 07:26:19;;;;;;;4.25;0.98;;;;;;;18.05;100.00;98456.13;5032406;28;20038;-92
2022/07/04 07:28:48;;;;;;;3.72;0.77;;;;;;;18.07;100.00;98455.13;5033701;28;20467;-92
2022/07/04 07:31:14;;;;;;;3.80;0.80;;;;;;;17.82;100.00;98473.81;4997216;28;20035;-93
2022/07/04 07:33:40;;;;;;;4.63;0.90;;;;;;;18.82;100.00;98465.81;5009554;28;20025;-91
2022/07/04 07:36:05;;;;;;;3.00;1.00;;;;;;;18.63;100.00;98467.63;5009379;28;20796;-91
2022/07/04 07:38:31;;;;;;;4.60;1.20;;;;;;;18.09;100.00;98473.53;5030129;28;20627;-94
2022/07/04 07:40:57;;;;;;;3.08;0.90;;;;;;;18.08;100.00;98483.25;5036515;28;20034;-93
2022/07/04 07:43:23;;;;;;;4.28;0.98;;;;;;;18.85;100.00;98473.59;5013989;28;20034;-92
2022/07/04 07:45:48;;;;;;;4.97;1.20;;;;;;;18.04;100.00;98486.09;5018506;28;20025;-93
2022/07/04 07:48:14;;;;;;;4.60;1.20;;;;;;;18.17;100.00;98481.13;5002732;28;20109;-93
2022/07/04 07:50:39;;;;;;;5.95;1.10;;;;;;;18.62;100.00;98489.66;5020198;28;20032;-92
2022/07/04 07:53:05;;;;;;;3.83;1.20;;;;;;;18.73;100.00;98500.59;5010594;28;20124;-93
2022/07/04 07:55:30;;;;;;;6.50;1.10;;;;;;;17.77;100.00;98490.75;5010912;28;20563;-93
2022/07/04 07:57:58;;;;;;;7.10;1.10;;;;;;;19.42;100.00;98510.53;5001306;28;20060;-92
2022/07/04 08:00:24;;;;;;;3.47;0.90;;;;;;;18.84;100.00;98508.03;5009924;28;20034;-90
2022/07/04 08:05:33;;;;;;;2.42;0.82;;;;;;;18.40;100.00;98517.91;5009283;28;20041;-94
2022/07/04 08:07:59;;;;;;;3.17;0.90;;;;;;;19.61;100.00;98521.06;5005295;28;20021;-92
2022/07/04 08:10:25;;;;;;;2.83;0.80;;;;;;;18.90;100.00;98519.19;5007246;28;20155;-91
2022/07/04 08:12:51;;;;;;;5.15;1.10;;;;;;;19.17;100.00;98510.03;5002541;28;20110;-92
2022/07/04 08:15:18;;;;;;;7.10;1.00;;;;;;;18.92;100.00;98514.69;5020235;28;20022;-93
2022/07/04 08:17:46;;;;;;;4.97;1.00;;;;;;;18.75;100.00;98507.53;5013385;28;20040;-92
2022/07/04 08:20:12;;;;;;;3.70;0.93;;;;;;;19.98;100.00;98512.22;5001949;28;20117;-92
2022/07/04 08:22:37;;;;;;;2.95;1.00;;;;;;;19.43;100.00;98503.47;5021549;28;20188;-93
2022/07/04 08:25:03;;;;;;;5.60;1.00;;;;;;;19.82;100.00;98507.72;5025850;28;20508;-92
2022/07/04 08:27:29;;;;;;;4.90;0.90;;;;;;;19.87;100.00;98510.13;5017750;28;20115;-92
2022/07/04 08:29:54;;;;;;;4.70;0.98;;;;;;;20.17;100.00;98513.00;5001191;28;20481;-91
2022/07/04 08:32:23;;;;;;;7.35;1.02;;;;;;;20.15;100.00;98511.34;5001493;28;20030;-92
2022/07/04 08:34:49;;;;;;;3.85;0.80;;;;;;;20.32;100.00;98521.06;5008517;28;20030;-93
2022/07/04 08:37:15;;;;;;;6.05;0.93;;;;;;;20.83;100.00;98523.66;5020182;28;20044;-92
2022/07/04 08:39:41;;;;;;;3.17;0.80;;;;;;;19.92;100.00;98524.00;5006904;28;20039;-92
2022/07/04 08:42:12;;;;;;;4.00;0.90;;;;;;;20.01;100.00;98504.97;5007805;28;20036;-90
2022/07/04 08:44:41;;;;;;;2.88;0.80;;;;;;;20.34;100.00;98514.75;5015900;28;20026;-93
2022/07/04 08:47:10;;;;;;;3.20;0.80;;;;;;;19.33;100.00;98524.22;5001392;28;20037;-92
2022/07/04 08:49:38;;;;;;;4.00;1.20;;;;;;;19.66;100.00;98523.47;5000278;28;21164;-91
2022/07/04 08:52:06;;;;;;;4.18;0.80;;;;;;;19.83;100.00;98527.09;5004553;28;20030;-93
2022/07/04 09:00:05;;;;;;;2.92;0.90;;;;;;;19.57;100.00;98516.88;5011526;28;20061;-93
2022/07/04 09:02:34;;;;;;;4.10;0.88;;;;;;;19.67;100.00;98521.69;5017689;28;20034;-92
2022/07/04 09:05:00;;;;;;;3.60;0.80;;;;;;;20.15;100.00;98514.00;5022959;28;20021;-92
2022/07/04 09:07:28;;;;;;;3.53;0.60;;;;;;;19.23;100.00;98507.94;5025905;28;20028;-92
2022/07/04 09:09:56;;;;;;;1.85;0.55;;;;;;;19.94;100.00;98514.16;5006930;28;20031;-93
2022/07/04 09:12:21;;;;;;;3.83;0.73;;;;;;;18.89;100.00;98516.63;5008782;28;20033;-92
2022/07/04 09:14:48;;;;;;;3.75;0.77;;;;;;;19.73;100.00;98516.09;5009538;28;20029;-92
2022/07/04 09:17:14;;;;;;;3.42;0.70;;;;;;;19.26;100.00;98520.13;5008284;28;20053;-91
2022/07/04 09:19:40;;;;;;;2.85;0.70;;;;;;;20.40;100.00;98524.16;5013362;28;20201;-92
2022/07/04 09:22:11;;;;;;;3.05;0.70;;;;;;;19.68;100.00;98529.56;5018625;28;21489;-92
2022/07/04 09:24:48;;;;;;;2.53;0.70;;;;;;;19.83;100.00;98520.00;5027419;28;20580;-92
2022/07/04 09:27:31;;;;;;;2.85;0.80;;;;;;;20.18;100.00;98535.88;5006047;28;20045;-91
2022/07/04 09:29:58;;;;;;;3.25;0.80;;;;;;;19.66;100.00;98536.69;5004845;28;20120;-93
2022/07/04 09:32:33;;;;;;;4.05;0.82;;;;;;;19.84;100.00;98537.59;5019701;28;20127;-92
2022/07/04 09:34:59;;;;;;;3.00;0.70;;;;;;;20.87;100.00;98541.13;5018610;28;20467;-92
2022/07/04 09:37:41;;;;;;;5.75;1.17;;;;;;;20.00;100.00;98535.03;4999375;28;20133;-93
2022/07/04 09:40:10;;;;;;;4.63;0.75;;;;;;;19.89;100.00;98540.88;5008341;28;20029;-92
2022/07/04 09:42:37;;;;;;;4.90;0.88;;;;;;;19.92;100.00;98535.44;5019191;28;20030;-93
2022/07/04 09:45:09;;;;;;;4.38;0.77;;;;;;;20.17;100.00;98555.34;5008844;28;20013;-93
2022/07/04 09:47:36;;;;;;;3.80;0.95;;;;;;;20.36;100.00;98562.31;5003496;28;20033;-91
2022/07/04 09:50:07;;;;;;;4.20;1.00;;;;;;;19.81;100.00;98553.63;5000861;28;20089;-91
2022/07/04 09:53:03;;;;;;;3.03;0.70;;;;;;;19.36;100.00;98552.28;5001239;28;20042;-91
2022/07/04 09:55:34;;;;;;;5.38;1.00;;;;;;;19.72;100.00;98562.88;4998243;28;20097;-90
2022/07/04 09:58:02;;;;;;;5.78;0.80;;;;;;;19.48;100.00;98561.44;5006488;28;20486;-91
2022/07/04 10:00:32;;;;;;;5.88;0.90;;;;;;;19.69;100.00;98549.78;5014594;28;20045;-92
2022/07/04 10:03:27;;;;;;;4.80;1.10;;;;;;;18.92;100.00;98566.69;5017901;28;20033;-92
2022/07/04 10:06:09;;;;;;;6.25;1.02;;;;;;;19.87;100.00;98555.97;5006333;28;20040;-92
2022/07/04 10:08:36;;;;;;;3.92;0.80;;;;;;;19.94;100.00;98561.81;4999908;28;20045;-91
2022/07/04 10:11:03;;;;;;;2.95;0.80;;;;;;;19.88;100.00;98562.13;5020294;28;20035;-91
2022/07/04 10:13:29;;;;;;;5.80;0.98;;;;;;;20.00;100.00;98577.41;5017924;28;20030;-91
2022/07/04 10:15:55;;;;;;;6.03;1.08;;;;;;;20.32;100.00;98581.97;5001291;28;20030;-91
2022/07/04 10:18:22;;;;;;;4.90;1.00;;;;;;;20.36;100.00;98581.75;5012082;28;20030;-93
2022/07/04 10:20:49;;;;;;;4.20;1.00;;;;;;;20.55;100.00;98578.13;5000690;28;20034;-93
2022/07/04 10:23:16;;;;;;;6.90;1.08;;;;;;;20.39;100.00;98593.94;5005407;28;20026;-89
2022/07/04 10:25:42;;;;;;;6.63;0.90;;;;;;;20.16;100.00;98593.34;4999600;28;20037;-91
2022/07/04 10:28:08;;;;;;;3.60;0.90;;;;;;;20.67;100.00;98600.44;5015745;28;21898;-92
2022/07/04 10:30:37;;;;;;;5.60;1.10;;;;;;;19.92;100.00;98604.25;4998108;28;20052;-94
2022/07/04 10:33:09;;;;;;;3.72;0.90;;;;;;;20.13;100.00;98609.41;5001874;28;20037;-92
2022/07/04 10:35:51;;;;;;;4.78;0.88;;;;;;;19.97;100.00;98603.16;4997396;28;20040;-92
2022/07/04 10:38:18;;;;;;;4.13;0.93;;;;;;;19.97;100.00;98600.50;4995096;28;20025;-90
2022/07/04 10:40:50;;;;;;;5.85;1.13;;;;;;;20.10;100.00;98602.47;4998682;28;20162;-88
2022/07/04 10:43:37;;;;;;;4.78;1.00;;;;;;;20.88;100.00;98617.06;5005486;28;20041;-92
2022/07/04 10:46:02;;;;;;;7.45;1.02;;;;;;;20.83;100.00;98611.13;5008312;28;20132;-92
2022/07/04 10:48:28;;;;;;;3.33;0.85;;;;;;;20.35;100.00;98601.22;4998188;28;20030;-93
2022/07/04 10:51:07;;;;;;;5.63;0.95;;;;;;;21.20;100.00;98607.34;5012802;28;20053;-92
2022/07/04 10:53:53;;;;;;;2.95;0.80;;;;;;;20.60;100.00;98602.59;5006436;28;20062;-92
2022/07/04 10:56:18;;;;;;;7.47;0.90;;;;;;;20.71;100.00;98612.63;5023182;28;20048;-92
2022/07/04 10:58:44;;;;;;;5.15;0.90;;;;;;;20.02;100.00;98607.28;5008833;28;20033;-92
2022/07/04 11:01:11;;;;;;;5.25;1.00;;;;;;;20.71;100.00;98596.72;5023120;28;20531;-91
2022/07/04 11:03:57;;;;;;;4.63;1.20;;;;;;;20.07;100.00;98597.31;5006130;28;20808;-94
2022/07/04 11:06:43;;;;;;;4.57;0.90;;;;;;;20.37;100.00;98601.13;5013545;28;20265;-94
2022/07/04 11:09:20;;;;;;;5.65;1.02;;;;;;;20.02;100.00;98601.13;5007634;28;20041;-92
2022/07/04 11:12:06;;;;;;;4.60;0.80;;;;;;;21.05;100.00;98614.34;4999424;28;20691;-93
2022/07/04 11:14:36;;;;;;;3.72;0.88;;;;;;;20.60;100.00;98611.38;5010135;28;20129;-93
2022/07/04 11:17:06;;;;;;;6.47;1.05;;;;;;;21.29;100.00;98609.50;5004978;28;20022;-93
2022/07/04 11:19:32;;;;;;;5.25;0.85;;;;;;;21.35;100.00;98599.47;4997629;28;20042;-93
2022/07/04 11:21:58;;;;;;;3.38;0.93;;;;;;;21.06;100.00;98592.19;5013191;28;20049;-90
2022/07/04 11:24:25;;;;;;;4.00;1.13;;;;;;;22.38;98.26;98600.69;5012278;28;20036;-88
2022/07/04 11:26:51;;;;;;;6.53;1.10;;;;;;;22.68;92.47;98611.25;4999714;28;20052;-93
2022/07/04 11:29:17;;;;;;;4.43;0.82;;;;;;;20.95;100.00;98608.66;5008602;28;20030;-93
2022/07/04 11:31:46;;;;;;;3.95;0.85;;;;;;;21.82;97.21;98610.09;5006321;28;20084;-92
2022/07/04 11:34:12;;;;;;;4.45;0.90;;;;;;;20.70;100.00;98618.88;5007724;28;20033;-93
2022/07/04 11:36:40;;;;;;;4.03;0.98;;;;;;;20.60;100.00;98615.84;5001572;28;20033;-91
2022/07/04 11:39:08;;;;;;;3.30;0.93;;;;;;;20.16;100.00;98616.34;5009703;28;20040;-91
2022/07/04 11:47:19;;;;;;;4.22;0.80;;;;;;;20.20;100.00;98617.88;5004563;28;20068;-93
2022/07/04 11:49:56;;;;;;;4.07;0.90;;;;;;;20.48;100.00;98616.47;5010887;28;20108;-91